createdAt,value
2018-11-23T00:00:20.436Z,25.10
2018-11-23T00:01:20.443Z,24.10
2018-11-23T00:02:20.452Z,26.10
2018-11-23T00:03:20.459Z,26.50
2018-11-23T00:04:20.480Z,26.20
2018-11-23T00:05:20.474Z,23.30
2018-11-23T00:06:20.487Z,26.40
2018-11-23T00:07:20.493Z,25.70
2018-11-23T00:08:20.497Z,27.90
2018-11-23T00:09:20.513Z,25.10
2018-11-23T00:10:20.517Z,27.30
2018-11-23T00:11:20.522Z,25.30
2018-11-23T00:12:20.544Z,26.50
2018-11-23T00:13:20.541Z,27.80
2018-11-23T00:14:20.547Z,26.40
2018-11-23T00:15:20.566Z,26.10
2018-11-23T00:16:20.564Z,26.70
2018-11-23T00:17:20.574Z,26.40
2018-11-23T00:18:20.582Z,27.20
2018-11-23T00:19:20.597Z,25.00
2018-11-23T00:20:20.596Z,27.70
2018-11-23T00:21:20.605Z,26.40
2018-11-23T00:22:20.616Z,26.50
2018-11-23T00:23:20.621Z,26.60
2018-11-23T00:24:20.631Z,28.30
2018-11-23T00:25:20.639Z,25.70
2018-11-23T00:26:20.651Z,26.20
2018-11-23T00:27:20.655Z,27.40
2018-11-23T00:28:20.662Z,25.30
2018-11-23T00:29:20.675Z,31.20
2018-11-23T00:30:20.676Z,29.50
2018-11-23T00:31:20.683Z,28.70
2018-11-23T00:32:20.700Z,28.20
2018-11-23T00:33:20.700Z,27.90
2018-11-23T00:34:20.707Z,28.50
2018-11-23T00:35:20.718Z,30.00
2018-11-23T00:36:20.724Z,28.30
2018-11-23T00:37:20.734Z,27.50
2018-11-23T00:38:20.752Z,27.60
2018-11-23T00:39:20.748Z,28.70
2018-11-23T00:40:20.755Z,29.80
2018-11-23T00:41:20.763Z,27.90
2018-11-23T00:42:20.771Z,26.50
2018-11-23T00:43:20.779Z,27.70
2018-11-23T00:44:20.788Z,28.30
2018-11-23T00:45:20.797Z,26.90
2018-11-23T00:46:20.808Z,26.00
2018-11-23T00:47:20.814Z,24.70
2018-11-23T00:48:20.818Z,26.30
2018-11-23T00:49:20.828Z,28.30
2018-11-23T00:50:20.834Z,26.50
2018-11-23T00:51:20.848Z,26.70
2018-11-23T00:52:20.850Z,27.80
2018-11-23T00:53:20.873Z,28.50
2018-11-23T00:54:20.865Z,25.00
2018-11-23T00:55:20.873Z,26.10
2018-11-23T00:56:20.882Z,27.80
2018-11-23T00:57:20.890Z,24.70
2018-11-23T00:58:20.897Z,25.60
2018-11-23T00:59:20.906Z,27.10
2018-11-23T01:00:20.914Z,26.60
2018-11-23T01:01:20.921Z,25.00
2018-11-23T01:02:20.929Z,25.90
2018-11-23T01:03:20.939Z,27.90
2018-11-23T01:04:20.945Z,26.10
2018-11-23T01:05:20.958Z,26.30
2018-11-23T01:06:20.961Z,25.40
2018-11-23T01:07:20.970Z,25.50
2018-11-23T01:08:20.979Z,25.90
2018-11-23T01:09:20.985Z,24.70
2018-11-23T01:10:20.993Z,26.30
2018-11-23T01:11:21.002Z,23.80
2018-11-23T01:12:21.011Z,24.60
2018-11-23T01:13:21.018Z,25.40
2018-11-23T01:14:21.026Z,25.80
2018-11-23T01:15:21.034Z,25.80
2018-11-23T01:16:21.044Z,27.10
2018-11-23T01:17:21.050Z,24.40
2018-11-23T01:18:21.058Z,27.20
2018-11-23T01:19:21.066Z,25.40
2018-11-23T01:20:21.082Z,26.50
2018-11-23T01:21:21.085Z,24.60
2018-11-23T01:22:21.092Z,24.60
2018-11-23T01:23:21.201Z,25.10
2018-11-23T01:24:21.107Z,26.40
2018-11-23T01:25:21.119Z,25.80
2018-11-23T01:26:21.125Z,23.10
2018-11-23T01:27:21.138Z,25.20
2018-11-23T01:28:21.142Z,26.30
2018-11-23T01:29:21.149Z,25.90
2018-11-23T01:30:21.157Z,25.20
2018-11-23T01:31:21.167Z,24.70
2018-11-23T01:32:21.180Z,23.70
2018-11-23T01:33:21.186Z,24.90
2018-11-23T01:34:21.194Z,26.80
2018-11-23T01:35:21.199Z,25.00
2018-11-23T01:36:21.208Z,26.70
2018-11-23T01:37:21.216Z,25.40
2018-11-23T01:38:21.227Z,25.00
2018-11-23T01:39:21.233Z,24.80
2018-11-23T01:40:21.239Z,26.40
2018-11-23T01:41:21.248Z,25.40
2018-11-23T01:42:21.262Z,24.50
2018-11-23T01:43:21.266Z,27.10
2018-11-23T01:44:21.272Z,24.30
2018-11-23T01:45:21.286Z,25.20
2018-11-23T01:46:21.293Z,25.20
2018-11-23T01:47:21.306Z,24.20
2018-11-23T01:48:21.306Z,25.90
2018-11-23T01:49:21.324Z,24.10
2018-11-23T01:50:21.321Z,25.00
2018-11-23T01:51:21.337Z,25.30
2018-11-23T01:52:21.342Z,24.40
2018-11-23T01:53:21.344Z,25.90
2018-11-23T01:54:21.355Z,26.80
2018-11-23T01:55:21.362Z,24.20
2018-11-23T01:56:21.373Z,26.60
2018-11-23T01:57:21.378Z,25.50
2018-11-23T01:58:21.390Z,27.30
2018-11-23T01:59:21.395Z,24.30
2018-11-23T02:00:21.405Z,26.30
2018-11-23T02:01:21.425Z,25.20
2018-11-23T02:02:21.419Z,24.50
2018-11-23T02:03:21.427Z,25.00
2018-11-23T02:04:21.434Z,23.40
2018-11-23T02:05:21.447Z,25.20
2018-11-23T02:06:21.456Z,26.90
2018-11-23T02:07:21.461Z,24.60
2018-11-23T02:08:21.468Z,26.30
2018-11-23T02:09:21.477Z,27.50
2018-11-23T02:10:21.484Z,23.80
2018-11-23T02:11:21.494Z,26.60
2018-11-23T02:12:21.502Z,25.30
2018-11-23T02:13:21.508Z,25.90
2018-11-23T02:14:21.518Z,27.00
2018-11-23T02:15:21.531Z,23.20
2018-11-23T02:16:21.535Z,24.50
2018-11-23T02:17:21.544Z,25.90
2018-11-23T02:18:21.551Z,25.10
2018-11-23T02:19:21.558Z,25.70
2018-11-23T02:20:21.573Z,26.40
2018-11-23T02:21:21.574Z,25.10
2018-11-23T02:22:21.582Z,26.40
2018-11-23T02:23:21.594Z,30.30
2018-11-23T02:24:21.598Z,24.90
2018-11-23T02:25:21.625Z,26.60
2018-11-23T02:26:21.616Z,27.30
2018-11-23T02:27:21.628Z,27.00
2018-11-23T02:28:21.631Z,25.30
2018-11-23T02:29:21.639Z,25.10
2018-11-23T02:30:21.655Z,27.20
2018-11-23T02:31:21.655Z,26.10
2018-11-23T02:32:21.667Z,25.70
2018-11-23T02:33:21.672Z,25.40
2018-11-23T02:34:21.678Z,28.50
2018-11-23T02:35:21.688Z,26.30
2018-11-23T02:36:21.694Z,26.80
2018-11-23T02:37:21.703Z,28.50
2018-11-23T02:38:21.710Z,25.20
2018-11-23T02:39:21.718Z,26.20
2018-11-23T02:40:21.727Z,25.70
2018-11-23T02:41:21.733Z,26.30
2018-11-23T02:42:21.749Z,24.60
2018-11-23T02:43:21.759Z,27.80
2018-11-23T02:44:21.762Z,27.60
2018-11-23T02:45:21.768Z,25.90
2018-11-23T02:46:21.772Z,27.50
2018-11-23T02:47:21.787Z,26.40
2018-11-23T02:48:21.790Z,27.90
2018-11-23T02:49:21.797Z,25.30
2018-11-23T02:50:21.808Z,27.60
2018-11-23T02:51:21.816Z,27.70
2018-11-23T02:52:21.821Z,27.50
2018-11-23T02:53:21.829Z,26.60
2018-11-23T02:54:21.835Z,25.20
2018-11-23T02:55:21.848Z,27.60
2018-11-23T02:56:21.852Z,27.50
2018-11-23T02:57:21.863Z,27.50
2018-11-23T02:58:21.867Z,29.20
2018-11-23T02:59:23.959Z,28.40
2018-11-23T03:00:21.883Z,27.10
2018-11-23T03:01:21.890Z,28.70
2018-11-23T03:02:21.901Z,29.70
2018-11-23T03:03:21.907Z,29.20
2018-11-23T03:04:21.914Z,27.50
2018-11-23T03:05:21.922Z,27.30
2018-11-23T03:06:21.928Z,29.50
2018-11-23T03:07:21.940Z,27.50
2018-11-23T03:08:21.946Z,29.50
2018-11-23T03:09:21.953Z,28.40
2018-11-23T03:10:21.959Z,29.60
2018-11-23T03:11:21.962Z,30.40
2018-11-23T03:12:21.970Z,28.00
2018-11-23T03:13:21.978Z,29.70
2018-11-23T03:14:21.994Z,27.20
2018-11-23T03:15:21.995Z,29.00
2018-11-23T03:16:22.010Z,27.20
2018-11-23T03:17:22.013Z,29.40
2018-11-23T03:18:22.016Z,28.40
2018-11-23T03:19:22.027Z,29.50
2018-11-23T03:20:22.033Z,29.00
2018-11-23T03:21:22.042Z,28.00
2018-11-23T03:22:22.047Z,30.00
2018-11-23T03:23:22.055Z,29.00
2018-11-23T03:24:22.068Z,27.70
2018-11-23T03:25:22.078Z,29.50
2018-11-23T03:26:22.078Z,26.90
2018-11-23T03:27:22.087Z,30.80
2018-11-23T03:28:22.095Z,29.10
2018-11-23T03:29:22.106Z,29.50
2018-11-23T03:30:22.111Z,31.30
2018-11-23T03:31:22.121Z,32.40
2018-11-23T03:32:22.135Z,29.10
2018-11-23T03:33:22.134Z,28.80
2018-11-23T03:34:22.141Z,27.70
2018-11-23T03:35:22.158Z,31.50
2018-11-23T03:36:22.157Z,31.00
2018-11-23T03:37:22.164Z,31.10
2018-11-23T03:38:22.185Z,29.60
2018-11-23T03:39:22.182Z,31.10
2018-11-23T03:40:22.190Z,29.10
2018-11-23T03:41:22.195Z,29.00
2018-11-23T03:42:22.214Z,34.90
2018-11-23T03:43:22.209Z,28.50
2018-11-23T03:44:22.217Z,29.30
2018-11-23T03:45:22.247Z,32.40
2018-11-23T03:46:22.233Z,31.40
2018-11-23T03:47:22.239Z,32.50
2018-11-23T03:48:22.249Z,30.40
2018-11-23T03:49:22.266Z,29.40
2018-11-23T03:50:22.263Z,32.60
2018-11-23T03:51:22.272Z,30.60
2018-11-23T03:52:22.280Z,31.80
2018-11-23T03:53:22.298Z,32.30
2018-11-23T03:54:22.294Z,31.30
2018-11-23T03:55:22.305Z,31.90
2018-11-23T03:56:22.314Z,30.40
2018-11-23T03:57:22.316Z,30.20
2018-11-23T03:58:22.324Z,32.00
2018-11-23T03:59:22.332Z,31.70
2018-11-23T04:00:22.340Z,33.80
2018-11-23T04:01:22.347Z,31.20
2018-11-23T04:02:22.353Z,33.70
2018-11-23T04:03:22.366Z,34.20
2018-11-23T04:04:22.376Z,33.60
2018-11-23T04:05:22.384Z,33.60
2018-11-23T04:06:22.384Z,30.40
2018-11-23T04:07:22.391Z,32.60
2018-11-23T04:08:22.401Z,30.50
2018-11-23T04:09:22.407Z,30.60
2018-11-23T04:10:22.422Z,30.20
2018-11-23T04:11:22.425Z,34.70
2018-11-23T04:12:22.431Z,33.80
2018-11-23T04:13:22.436Z,33.20
2018-11-23T04:14:22.455Z,32.10
2018-11-23T04:15:22.459Z,31.90
2018-11-23T04:16:22.462Z,29.80
2018-11-23T04:17:22.469Z,32.00
2018-11-23T04:18:22.475Z,35.30
2018-11-23T04:19:22.486Z,32.90
2018-11-23T04:20:22.491Z,30.50
2018-11-23T04:21:22.497Z,32.80
2018-11-23T04:22:22.506Z,33.10
2018-11-23T04:23:22.516Z,33.00
2018-11-23T04:24:22.519Z,31.20
2018-11-23T04:25:22.529Z,34.60
2018-11-23T04:26:24.812Z,34.40
2018-11-23T04:27:22.542Z,32.10
2018-11-23T04:28:22.549Z,31.20
2018-11-23T04:29:22.562Z,33.00
2018-11-23T04:30:22.567Z,32.00
2018-11-23T04:31:22.576Z,32.30
2018-11-23T04:32:22.580Z,31.70
2018-11-23T04:33:22.592Z,32.20
2018-11-23T04:34:22.595Z,32.30
2018-11-23T04:35:22.606Z,32.40
2018-11-23T04:36:22.611Z,31.50
2018-11-23T04:37:22.618Z,32.10
2018-11-23T04:38:22.624Z,32.40
2018-11-23T04:39:22.732Z,32.60
2018-11-23T04:40:22.639Z,31.50
2018-11-23T04:41:22.649Z,32.60
2018-11-23T04:42:22.655Z,33.50
2018-11-23T04:43:22.667Z,35.00
2018-11-23T04:44:22.669Z,32.70
2018-11-23T04:45:22.678Z,33.70
2018-11-23T04:46:22.685Z,31.00
2018-11-23T04:47:22.693Z,35.10
2018-11-23T04:48:22.702Z,33.80
2018-11-23T04:49:22.712Z,33.80
2018-11-23T04:50:22.714Z,35.90
2018-11-23T04:51:22.722Z,34.80
2018-11-23T04:52:22.729Z,33.90
2018-11-23T04:53:22.738Z,32.00
2018-11-23T04:54:22.745Z,33.80
2018-11-23T04:55:22.751Z,33.80
2018-11-23T04:56:22.760Z,34.00
2018-11-23T04:57:22.768Z,34.20
2018-11-23T04:58:22.775Z,32.20
2018-11-23T04:59:22.782Z,33.90
2018-11-23T05:00:22.790Z,33.60
2018-11-23T05:01:22.802Z,33.90
2018-11-23T05:02:22.804Z,34.70
2018-11-23T05:03:22.813Z,34.10
2018-11-23T05:04:22.822Z,35.70
2018-11-23T05:05:22.833Z,32.90
2018-11-23T05:06:22.836Z,33.60
2018-11-23T05:07:22.849Z,36.10
2018-11-23T05:08:22.852Z,37.40
2018-11-23T05:09:22.881Z,35.50
2018-11-23T05:10:22.865Z,33.40
2018-11-23T05:11:22.873Z,35.70
2018-11-23T05:12:22.880Z,35.80
2018-11-23T05:13:22.889Z,36.30
2018-11-23T05:14:22.893Z,36.50
2018-11-23T05:15:22.903Z,36.90
2018-11-23T05:16:22.911Z,33.80
2018-11-23T05:17:22.918Z,35.40
2018-11-23T05:18:22.935Z,35.10
2018-11-23T05:19:22.932Z,35.70
2018-11-23T05:20:22.940Z,34.90
2018-11-23T05:21:22.947Z,35.30
2018-11-23T05:22:22.954Z,32.10
2018-11-23T05:23:22.961Z,33.50
2018-11-23T05:24:22.969Z,34.90
2018-11-23T05:25:22.978Z,34.20
2018-11-23T05:26:22.983Z,33.70
2018-11-23T05:27:22.993Z,35.00
2018-11-23T05:28:23.014Z,36.30
2018-11-23T05:29:23.007Z,34.50
2018-11-23T05:30:23.015Z,35.20
2018-11-23T05:31:23.022Z,35.80
2018-11-23T05:32:23.030Z,35.00
2018-11-23T05:33:23.043Z,34.40
2018-11-23T05:34:23.055Z,36.80
2018-11-23T05:35:23.052Z,33.90
2018-11-23T05:36:23.059Z,36.00
2018-11-23T05:37:23.069Z,36.10
2018-11-23T05:38:23.077Z,35.60
2018-11-23T05:39:23.082Z,36.30
2018-11-23T05:40:23.091Z,34.60
2018-11-23T05:41:23.129Z,35.30
2018-11-23T05:42:23.106Z,36.10
2018-11-23T05:43:23.117Z,36.10
2018-11-23T05:44:23.119Z,37.50
2018-11-23T05:45:23.126Z,34.10
2018-11-23T05:46:23.133Z,38.10
2018-11-23T05:47:23.141Z,37.20
2018-11-23T05:48:26.955Z,36.00
2018-11-23T05:49:23.163Z,34.90
2018-11-23T05:50:23.163Z,33.80
2018-11-23T05:51:23.171Z,35.90
2018-11-23T05:52:23.383Z,34.20
2018-11-23T05:53:23.205Z,35.70
2018-11-23T05:54:23.193Z,38.10
2018-11-23T05:55:23.209Z,37.10
2018-11-23T05:56:23.207Z,35.90
2018-11-23T05:57:23.216Z,36.60
2018-11-23T05:58:23.223Z,36.00
2018-11-23T05:59:23.237Z,38.40
2018-11-23T06:00:23.237Z,37.20
2018-11-23T06:01:23.246Z,36.40
2018-11-23T06:02:23.253Z,36.70
2018-11-23T06:03:23.262Z,38.50
2018-11-23T06:04:23.267Z,38.80
2018-11-23T06:05:23.277Z,38.80
2018-11-23T06:06:23.293Z,41.90
2018-11-23T06:07:23.292Z,40.00
2018-11-23T06:08:23.298Z,39.60
2018-11-23T06:09:23.305Z,39.30
2018-11-23T06:10:23.312Z,37.00
2018-11-23T06:11:23.325Z,40.80
2018-11-23T06:12:23.332Z,40.20
2018-11-23T06:13:23.336Z,40.50
2018-11-23T06:14:23.341Z,37.90
2018-11-23T06:15:23.349Z,37.90
2018-11-23T06:16:23.362Z,40.80
2018-11-23T06:17:23.364Z,41.00
2018-11-23T06:18:23.373Z,39.30
2018-11-23T06:19:23.380Z,41.40
2018-11-23T06:20:23.387Z,36.80
2018-11-23T06:21:23.396Z,38.50
2018-11-23T06:22:23.409Z,38.60
2018-11-23T06:23:23.407Z,39.80
2018-11-23T06:24:23.415Z,39.60
2018-11-23T06:25:23.423Z,44.00
2018-11-23T06:26:23.429Z,40.80
2018-11-23T06:27:23.441Z,45.50
2018-11-23T06:28:23.447Z,42.20
2018-11-23T06:29:23.451Z,42.60
2018-11-23T06:30:23.459Z,43.00
2018-11-23T06:31:23.465Z,40.50
2018-11-23T06:32:23.472Z,39.90
2018-11-23T06:33:23.481Z,42.40
2018-11-23T06:34:23.489Z,40.60
2018-11-23T06:35:23.495Z,42.50
2018-11-23T06:36:23.503Z,44.00
2018-11-23T06:37:23.510Z,47.50
2018-11-23T06:38:23.516Z,43.80
2018-11-23T06:39:23.523Z,44.60
2018-11-23T06:40:23.532Z,43.70
2018-11-23T06:41:23.539Z,44.90
2018-11-23T06:42:23.547Z,44.60
2018-11-23T06:43:23.552Z,41.90
2018-11-23T06:44:23.560Z,42.50
2018-11-23T06:45:23.567Z,42.10
2018-11-23T06:46:23.608Z,42.10
2018-11-23T06:47:23.584Z,46.10
2018-11-23T06:48:23.589Z,41.20
2018-11-23T06:49:23.596Z,45.40
2018-11-23T06:50:23.622Z,48.10
2018-11-23T06:51:23.620Z,47.40
2018-11-23T06:52:23.618Z,42.70
2018-11-23T06:53:23.635Z,47.00
2018-11-23T06:54:23.639Z,44.10
2018-11-23T06:55:23.639Z,41.40
2018-11-23T06:56:23.650Z,48.00
2018-11-23T06:57:23.654Z,42.80
2018-11-23T06:58:23.661Z,41.30
2018-11-23T06:59:23.668Z,41.80
2018-11-23T07:00:23.678Z,41.30
2018-11-23T07:01:23.684Z,42.10
2018-11-23T07:02:23.691Z,44.10
2018-11-23T07:03:23.699Z,42.00
2018-11-23T07:04:23.706Z,43.70
2018-11-23T07:05:23.714Z,41.60
2018-11-23T07:06:23.720Z,42.50
2018-11-23T07:07:23.728Z,41.20
2018-11-23T07:08:23.741Z,42.40
2018-11-23T07:09:23.741Z,41.50
2018-11-23T07:10:23.749Z,38.20
2018-11-23T07:11:23.761Z,42.70
2018-11-23T07:12:23.761Z,42.70
2018-11-23T07:13:23.770Z,40.80
2018-11-23T07:14:23.776Z,41.40
2018-11-23T07:15:23.785Z,39.00
2018-11-23T07:16:23.792Z,42.80
2018-11-23T07:17:23.800Z,39.70
2018-11-23T07:18:23.807Z,44.10
2018-11-23T07:19:23.816Z,43.30
2018-11-23T07:20:23.828Z,43.00
2018-11-23T07:21:23.830Z,43.60
2018-11-23T07:22:23.840Z,43.00
2018-11-23T07:23:23.846Z,44.20
2018-11-23T07:24:23.849Z,44.70
2018-11-23T07:25:23.859Z,43.90
2018-11-23T07:26:23.864Z,42.20
2018-11-23T07:27:23.872Z,42.40
2018-11-23T07:28:23.881Z,40.40
2018-11-23T07:29:23.887Z,43.90
2018-11-23T07:30:23.898Z,43.30
2018-11-23T07:31:23.908Z,40.50
2018-11-23T07:32:23.911Z,42.60
2018-11-23T07:33:23.918Z,42.30
2018-11-23T07:34:23.924Z,43.00
2018-11-23T07:35:23.931Z,45.60
2018-11-23T07:36:23.940Z,47.10
2018-11-23T07:37:23.948Z,42.70
2018-11-23T07:38:23.952Z,44.20
2018-11-23T07:39:23.960Z,43.80
2018-11-23T07:40:23.967Z,45.20
2018-11-23T07:41:23.973Z,40.90
2018-11-23T07:42:23.980Z,43.20
2018-11-23T07:43:23.988Z,39.30
2018-11-23T07:44:23.995Z,42.20
2018-11-23T07:45:24.015Z,44.40
2018-11-23T07:46:24.013Z,38.90
2018-11-23T07:47:24.018Z,42.60
2018-11-23T07:48:24.028Z,41.80
2018-11-23T07:49:24.032Z,42.90
2018-11-23T07:50:24.043Z,41.60
2018-11-23T07:51:24.053Z,41.50
2018-11-23T07:52:24.057Z,45.40
2018-11-23T07:53:24.063Z,44.60
2018-11-23T07:54:24.068Z,41.40
2018-11-23T07:55:24.080Z,41.80
2018-11-23T07:56:24.086Z,40.80
2018-11-23T07:57:24.093Z,41.00
2018-11-23T07:58:24.099Z,38.90
2018-11-23T07:59:24.106Z,41.20
2018-11-23T08:00:24.130Z,43.30
2018-11-23T08:01:24.123Z,43.30
2018-11-23T08:02:24.128Z,41.60
2018-11-23T08:03:24.135Z,41.50
2018-11-23T08:04:24.175Z,40.30
2018-11-23T08:05:24.150Z,40.40
2018-11-23T08:06:24.157Z,43.50
2018-11-23T08:07:24.165Z,41.60
2018-11-23T08:08:24.173Z,44.00
2018-11-23T08:09:24.244Z,44.30
2018-11-23T08:10:24.187Z,42.50
2018-11-23T08:11:25.094Z,42.10
2018-11-23T08:12:24.200Z,40.50
2018-11-23T08:13:24.207Z,42.20
2018-11-23T08:14:24.215Z,43.30
2018-11-23T08:15:24.321Z,41.40
2018-11-23T08:16:24.233Z,42.40
2018-11-23T08:17:24.239Z,45.10
2018-11-23T08:18:24.246Z,41.50
2018-11-23T08:19:24.253Z,41.60
2018-11-23T08:20:24.260Z,42.70
2018-11-23T08:21:24.269Z,40.00
2018-11-23T08:22:24.277Z,45.30
2018-11-23T08:23:24.293Z,44.90
2018-11-23T08:24:24.290Z,47.10
2018-11-23T08:25:24.298Z,44.70
2018-11-23T08:26:24.304Z,45.30
2018-11-23T08:27:24.313Z,45.00
2018-11-23T08:28:24.321Z,46.30
2018-11-23T08:29:24.333Z,45.70
2018-11-23T08:30:24.333Z,44.20
2018-11-23T08:31:24.341Z,38.20
2018-11-23T08:32:24.350Z,41.40
2018-11-23T08:33:24.363Z,42.70
2018-11-23T08:34:24.378Z,42.10
2018-11-23T08:35:24.371Z,39.90
2018-11-23T08:36:24.388Z,41.40
2018-11-23T08:37:24.388Z,41.70
2018-11-23T08:38:24.397Z,40.40
2018-11-23T08:39:24.402Z,43.80
2018-11-23T08:40:24.410Z,42.20
2018-11-23T08:41:24.428Z,44.60
2018-11-23T08:42:24.424Z,42.50
2018-11-23T08:43:24.432Z,42.90
2018-11-23T08:44:24.758Z,41.10
2018-11-23T08:45:24.448Z,41.30
2018-11-23T08:46:24.456Z,41.30
2018-11-23T08:47:24.462Z,41.10
2018-11-23T08:48:24.470Z,42.10
2018-11-23T08:49:24.477Z,41.10
2018-11-23T08:50:24.484Z,41.60
2018-11-23T08:51:24.494Z,39.70
2018-11-23T08:52:24.504Z,40.30
2018-11-23T08:53:27.925Z,38.90
2018-11-23T08:54:24.560Z,40.20
2018-11-23T08:56:24.536Z,39.40
2018-11-23T08:57:24.541Z,38.70
2018-11-23T08:58:24.547Z,40.10
2018-11-23T08:59:24.547Z,40.20
2018-11-23T09:00:24.555Z,41.20
2018-11-23T09:01:24.566Z,37.40
2018-11-23T09:02:24.571Z,40.30
2018-11-23T09:03:24.578Z,39.90
2018-11-23T09:04:24.587Z,43.20
2018-11-23T09:05:24.593Z,38.60
2018-11-23T09:06:24.602Z,39.90
2018-11-23T09:07:24.608Z,39.50
2018-11-23T09:08:24.621Z,37.70
2018-11-23T09:09:24.626Z,42.90
2018-11-23T09:10:24.645Z,39.40
2018-11-23T09:11:24.639Z,39.20
2018-11-23T09:12:24.649Z,40.10
2018-11-23T09:13:25.064Z,39.60
2018-11-23T09:14:24.665Z,38.60
2018-11-23T09:15:24.675Z,40.00
2018-11-23T09:16:24.695Z,37.10
2018-11-23T09:17:24.689Z,37.80
2018-11-23T09:18:24.697Z,39.40
2018-11-23T09:19:24.707Z,37.20
2018-11-23T09:20:24.715Z,38.10
2018-11-23T09:21:24.724Z,36.60
2018-11-23T09:22:24.728Z,35.10
2018-11-23T09:23:24.735Z,36.50
2018-11-23T09:24:24.767Z,35.10
2018-11-23T09:25:24.786Z,35.60
2018-11-23T09:26:24.757Z,36.10
2018-11-23T09:27:24.767Z,35.40
2018-11-23T09:28:24.775Z,37.90
2018-11-23T09:29:24.784Z,36.30
2018-11-23T09:30:24.793Z,34.70
2018-11-23T09:31:24.799Z,35.20
2018-11-23T09:32:24.808Z,36.80
2018-11-23T09:33:24.815Z,37.50
2018-11-23T09:34:24.822Z,34.40
2018-11-23T09:35:24.832Z,33.20
2018-11-23T09:36:24.839Z,35.70
2018-11-23T09:37:24.849Z,36.30
2018-11-23T09:38:24.856Z,38.10
2018-11-23T09:39:24.864Z,34.60
2018-11-23T09:40:24.871Z,36.00
2018-11-23T09:41:24.892Z,37.40
2018-11-23T09:42:24.888Z,34.40
2018-11-23T09:43:24.895Z,40.80
2018-11-23T09:44:24.939Z,34.90
2018-11-23T09:45:24.912Z,33.80
2018-11-23T09:46:24.920Z,34.00
2018-11-23T09:47:24.933Z,37.00
2018-11-23T09:48:24.945Z,36.00
2018-11-23T09:49:24.945Z,34.30
2018-11-23T09:50:24.953Z,32.70
2018-11-23T09:51:25.004Z,37.30
2018-11-23T09:52:24.970Z,33.50
2018-11-23T09:53:24.982Z,32.70
2018-11-23T09:54:24.985Z,34.30
2018-11-23T09:55:24.995Z,35.10
2018-11-23T09:56:25.003Z,36.00
2018-11-23T09:57:25.016Z,36.00
2018-11-23T09:58:25.020Z,37.40
2018-11-23T09:59:25.027Z,31.50
2018-11-23T10:00:25.037Z,33.20
2018-11-23T10:01:25.046Z,35.00
2018-11-23T10:02:25.055Z,33.80
2018-11-23T10:03:25.074Z,34.80
2018-11-23T10:04:25.086Z,33.90
2018-11-23T10:05:25.081Z,34.30
2018-11-23T10:06:25.088Z,33.20
2018-11-23T10:07:25.097Z,34.30
2018-11-23T10:08:25.104Z,32.60
2018-11-23T10:09:25.124Z,34.90
2018-11-23T10:10:25.124Z,32.00
2018-11-23T10:11:25.131Z,31.70
2018-11-23T10:12:25.147Z,33.80
2018-11-23T10:13:25.145Z,37.00
2018-11-23T10:14:25.174Z,32.00
2018-11-23T10:15:25.163Z,33.30
2018-11-23T10:16:25.171Z,31.40
2018-11-23T10:17:25.181Z,32.80
2018-11-23T10:18:25.186Z,31.50
2018-11-23T10:19:25.196Z,33.70
2018-11-23T10:20:25.209Z,30.60
2018-11-23T10:21:25.214Z,36.00
2018-11-23T10:22:25.221Z,33.50
2018-11-23T10:23:25.230Z,35.40
2018-11-23T10:24:25.248Z,34.70
2018-11-23T10:25:25.247Z,32.70
2018-11-23T10:26:25.255Z,32.20
2018-11-23T10:27:25.263Z,34.00
2018-11-23T10:28:25.277Z,32.60
2018-11-23T10:29:25.282Z,34.70
2018-11-23T10:30:25.290Z,33.70
2018-11-23T10:31:25.319Z,33.90
2018-11-23T10:32:25.307Z,31.40
2018-11-23T10:33:28.340Z,35.10
2018-11-23T10:34:25.323Z,33.10
2018-11-23T10:35:25.342Z,32.40
2018-11-23T10:36:25.342Z,30.60
2018-11-23T10:37:25.349Z,34.60
2018-11-23T10:38:25.363Z,33.10
2018-11-23T10:39:25.368Z,31.20
2018-11-23T10:40:25.376Z,30.30
2018-11-23T10:41:25.386Z,30.40
2018-11-23T10:42:25.393Z,31.10
2018-11-23T10:43:25.401Z,31.70
2018-11-23T10:44:25.410Z,32.70
2018-11-23T10:45:25.418Z,32.40
2018-11-23T10:46:25.427Z,31.70
2018-11-23T10:47:25.437Z,35.70
2018-11-23T10:48:25.451Z,31.80
2018-11-23T10:49:25.460Z,33.30
2018-11-23T10:50:25.464Z,32.70
2018-11-23T10:51:25.486Z,31.70
2018-11-23T10:52:25.520Z,33.30
2018-11-23T10:53:25.493Z,33.00
2018-11-23T10:54:25.499Z,31.70
2018-11-23T10:55:25.506Z,31.50
2018-11-23T10:56:25.517Z,33.00
2018-11-23T10:57:25.525Z,31.70
2018-11-23T10:58:25.537Z,31.40
2018-11-23T10:59:25.544Z,32.30
2018-11-23T11:00:25.592Z,36.10
2018-11-23T11:01:25.564Z,34.30
2018-11-23T11:02:25.577Z,30.40
2018-11-23T11:03:25.581Z,31.80
2018-11-23T11:04:25.586Z,32.70
2018-11-23T11:05:25.594Z,31.40
2018-11-23T11:06:25.607Z,31.20
2018-11-23T11:07:25.819Z,31.40
2018-11-23T11:08:25.623Z,30.40
2018-11-23T11:09:25.631Z,33.90
2018-11-23T11:10:25.639Z,30.70
2018-11-23T11:11:25.649Z,32.50
2018-11-23T11:12:25.658Z,33.00
2018-11-23T11:13:25.666Z,29.30
2018-11-23T11:14:25.679Z,34.50
2018-11-23T11:15:25.684Z,31.20
2018-11-23T11:16:25.693Z,31.90
2018-11-23T11:17:25.702Z,30.40
2018-11-23T11:18:25.711Z,30.90
2018-11-23T11:19:25.719Z,32.60
2018-11-23T11:20:25.729Z,34.00
2018-11-23T11:21:25.737Z,31.80
2018-11-23T11:22:25.746Z,32.50
2018-11-23T11:23:25.756Z,42.20
2018-11-23T11:24:25.764Z,33.20
2018-11-23T11:25:25.773Z,33.00
2018-11-23T11:26:25.782Z,35.90
2018-11-23T11:27:25.794Z,36.40
2018-11-23T11:28:25.799Z,30.40
2018-11-23T11:29:25.812Z,32.20
2018-11-23T11:30:25.817Z,35.00
2018-11-23T11:31:25.828Z,30.40
2018-11-23T11:32:25.839Z,32.90
2018-11-23T11:33:25.849Z,32.60
2018-11-23T11:34:25.854Z,29.90
2018-11-23T11:35:25.869Z,30.10
2018-11-23T11:36:25.873Z,32.30
2018-11-23T11:37:25.886Z,32.00
2018-11-23T11:38:25.890Z,31.70
2018-11-23T11:39:25.899Z,30.90
2018-11-23T11:40:25.909Z,31.90
2018-11-23T11:41:25.917Z,31.70
2018-11-23T11:42:25.928Z,32.10
2018-11-23T11:43:25.945Z,31.80
2018-11-23T11:44:25.945Z,30.20
2018-11-23T11:45:25.959Z,29.80
2018-11-23T11:46:25.964Z,31.20
2018-11-23T11:47:25.973Z,33.50
2018-11-23T11:48:25.980Z,30.70
2018-11-23T11:49:25.992Z,30.20
2018-11-23T11:50:25.998Z,30.90
2018-11-23T11:51:26.014Z,29.30
2018-11-23T11:52:26.118Z,30.80
2018-11-23T11:53:26.032Z,31.10
2018-11-23T11:54:26.041Z,32.00
2018-11-23T11:55:26.047Z,29.70
2018-11-23T11:56:26.057Z,31.20
2018-11-23T11:57:26.066Z,29.20
2018-11-23T11:58:26.076Z,30.40
2018-11-23T11:59:26.085Z,29.50
2018-11-23T12:00:26.103Z,30.60
2018-11-23T12:01:26.104Z,30.00
2018-11-23T12:02:26.112Z,28.60
2018-11-23T12:03:26.121Z,30.00
2018-11-23T12:04:26.130Z,28.90
2018-11-23T12:05:26.144Z,29.30
2018-11-23T12:06:26.157Z,29.70
2018-11-23T12:07:26.159Z,33.70
2018-11-23T12:08:26.174Z,28.10
2018-11-23T12:09:26.176Z,29.50
2018-11-23T12:10:26.188Z,30.20
2018-11-23T12:11:26.199Z,30.20
2018-11-23T12:12:26.204Z,29.30
2018-11-23T12:13:26.218Z,29.30
2018-11-23T12:14:26.229Z,30.90
2018-11-23T12:15:26.234Z,31.10
2018-11-23T12:16:26.244Z,30.90
2018-11-23T12:17:26.252Z,28.70
2018-11-23T12:18:26.261Z,29.90
2018-11-23T12:19:26.273Z,29.30
2018-11-23T12:20:26.281Z,32.30
2018-11-23T12:21:26.290Z,28.30
2018-11-23T12:22:26.303Z,28.70
2018-11-23T12:23:26.308Z,29.20
2018-11-23T12:24:26.317Z,29.60
2018-11-23T12:25:26.355Z,29.80
2018-11-23T12:26:26.341Z,28.10
2018-11-23T12:27:29.348Z,27.10
2018-11-23T12:28:26.356Z,30.50
2018-11-23T12:29:26.369Z,28.80
2018-11-23T12:30:26.373Z,29.90
2018-11-23T12:31:26.386Z,30.50
2018-11-23T12:32:26.393Z,29.60
2018-11-23T12:33:26.418Z,27.90
2018-11-23T12:34:26.412Z,29.30
2018-11-23T12:35:26.421Z,28.00
2018-11-23T12:36:26.432Z,27.10
2018-11-23T12:37:26.441Z,28.80
2018-11-23T12:38:26.450Z,29.60
2018-11-23T12:39:26.459Z,28.00
2018-11-23T12:40:26.469Z,27.40
2018-11-23T12:41:26.477Z,29.10
2018-11-23T12:42:26.487Z,27.10
2018-11-23T12:43:26.499Z,25.60
2018-11-23T12:44:26.506Z,27.30
2018-11-23T12:45:26.518Z,28.30
2018-11-23T12:46:26.525Z,25.80
2018-11-23T12:47:26.562Z,26.70
2018-11-23T12:48:26.543Z,28.10
2018-11-23T12:49:26.554Z,25.10
2018-11-23T12:50:26.562Z,26.50
2018-11-23T12:51:26.573Z,27.10
2018-11-23T12:52:26.587Z,27.80
2018-11-23T12:53:26.591Z,25.20